»·PEaware :: N800DW KMTJ-KDEN

N800DW :: KMTJ-KDEN

FLIGHT INFORMATION

Flight Status: Arrived
Operator: Privately registered:
United States
More flights under this callsign
Pilot: Scott L. (17677)
Aircraft: Unknown
(EPIC)
More flights by this aircraft type
Origin: KMTJ Montrose Regl
United States
Destination: KDEN Denver Intl
United States
More flights between these airports :: More routes between these airports
Route: +ICIES V361 DBL V134 BINBE
File this flight plan on PilotEdge
Remarks:
Altitude:
(Current/Filed)
27,000ft
Speed:
(Current/Filed)
250kts
Departed: 12-May-18 12:03 PM
Arrived: 12-May-18 12:46 PM
Distance/Time
Traveled:
170nm/0:43
Distance/Time
To Go:
Arrived

Flight Plot

Page will automatically refresh every two minutes.

Flight plan parsing failed; only flown route is shown


Map Options




Map Legend


Flown Route
Filed Route
Departure Airport
Arrival Airport
Navaid (VOR, NDB)
Fix

Horizontal Profiles

Position Reports

Time Latitude Longitude Heading Altitude Ground
Speed
12-May-18 11:55 38.495242 -107.892460 47 5712ft 0kts
12-May-18 11:56 38.495242 -107.892460 47 5712ft 0kts
12-May-18 11:57 38.495242 -107.892460 47 5712ft 0kts
12-May-18 11:58 38.495242 -107.892460 47 5712ft 0kts
12-May-18 11:59 38.497642 -107.894689 319 5712ft 21kts
12-May-18 12:00 38.502195 -107.898591 48 5712ft 0kts
12-May-18 12:01 38.504164 -107.899248 319 5712ft 20kts
12-May-18 12:02 38.508895 -107.904484 231 5712ft 0kts
12-May-18 12:03 38.495091 -107.884049 111 6411ft 194kts
12-May-18 12:04 38.541416 -107.853304 357 9752ft 238kts
12-May-18 12:05 38.607104 -107.834033 20 13011ft 253kts
12-May-18 12:06 38.670047 -107.800671 23 15617ft 266kts
12-May-18 12:07 38.732985 -107.750348 43 17985ft 275kts
12-May-18 12:08 38.790394 -107.682856 45 20014ft 286kts
12-May-18 12:09 38.849551 -107.612034 44 21772ft 296kts
12-May-18 12:10 38.910013 -107.539345 44 23253ft 306kts
12-May-18 12:11 38.973082 -107.463288 45 24488ft 318kts
12-May-18 12:12 39.038684 -107.383963 45 25572ft 330kts
12-May-18 12:13 39.102734 -107.306320 45 26987ft 323kts
12-May-18 12:14 39.170849 -107.223478 45 27032ft 356kts
12-May-18 12:15 39.239969 -107.139215 45 27032ft 370kts
12-May-18 12:16 39.315361 -107.047026 45 27033ft 377kts
12-May-18 12:17 39.391231 -106.953904 44 27025ft 379kts
12-May-18 12:18 39.446803 -106.843591 77 26996ft 366kts
12-May-18 12:19 39.472714 -106.716979 80 25036ft 361kts
12-May-18 12:20 39.496196 -106.592293 80 23053ft 355kts
12-May-18 12:21 39.519099 -106.469187 79 21066ft 349kts
12-May-18 12:22 39.540976 -106.350915 80 20116ft 316kts
12-May-18 12:23 39.559900 -106.248051 81 20146ft 284kts
12-May-18 12:24 39.578277 -106.147202 80 19054ft 304kts
12-May-18 12:25 39.594271 -106.036568 87 17270ft 319kts
12-May-18 12:26 39.602588 -105.927776 88 17058ft 296kts
12-May-18 12:27 39.610310 -105.821364 88 17053ft 296kts
12-May-18 12:28 39.617879 -105.715265 88 17036ft 296kts
12-May-18 12:29 39.625367 -105.608892 88 17022ft 296kts
12-May-18 12:30 39.625896 -105.503460 97 16937ft 295kts
12-May-18 12:31 39.618597 -105.390965 97 15362ft 326kts
12-May-18 12:32 39.610026 -105.275526 98 14052ft 324kts
12-May-18 12:33 39.601707 -105.163929 98 14031ft 301kts
12-May-18 12:34 39.594445 -105.062736 98 14030ft 294kts
12-May-18 12:35 39.565774 -104.961360 117 12420ft 328kts
12-May-18 12:36 39.528372 -104.859341 117 10150ft 298kts
12-May-18 12:37 39.492734 -104.766847 117 8044ft 266kts
12-May-18 12:38 39.478124 -104.693872 49 8018ft 191kts
12-May-18 12:39 39.523076 -104.667671 25 8032ft 189kts
12-May-18 12:40 39.575088 -104.639108 25 8029ft 214kts
12-May-18 12:41 39.628430 -104.624731 341 7576ft 246kts
12-May-18 12:42 39.686168 -104.648287 356 7314ft 211kts
12-May-18 12:43 39.743621 -104.648669 6 6763ft 197kts
12-May-18 12:44 39.790104 -104.659566 346 6284ft 151kts
12-May-18 12:45 39.829763 -104.660617 5 5469ft 139kts
12-May-18 12:46 39.849201 -104.661697 329 5438ft 8kts
12-May-18 12:47 39.849228 -104.661718 329 5438ft 0kts
12-May-18 12:48 39.847106 -104.662386 180 5438ft 15kts

Navigation Log

Ident Type
Flight plan parsing failed, navigation log unavailable